Terminal Aerodrome Forecast
Issued by NWS

Home | Current Version | Previous Version | Text Only | Print | Product List | Glossary Off
Versions: 1 2 3 4 5 6 7 8 9 10 11 12 13 14 15 16 17 18 19 20 21

000
FTUS43 KMPX 290900 AAA
TAFRNH
TAF AMD
KRNH 290911Z 2909/3006 14005KT 5SM BR VCSH OVC005
      TEMPO 2909/2911 3SM -SHRA BR OVC003
     FM291400 17007KT P6SM SCT007 BKN060
      TEMPO 2914/2917 BKN010
     FM291700 19006KT P6SM SCT020 BKN050
     FM291900 22005KT P6SM VCSH SCT025 OVC120 PROB30 2919/2923 5SM
      -TSRA OVC025CB=

USA.gov is the U.S. government's official web portal to all federal, state and local government web resources and services.